createdAt,value
2016-11-09T00:00:02.018Z,930.03
2016-11-09T00:01:15.574Z,930.03
2016-11-09T00:02:28.363Z,930.07
2016-11-09T00:03:41.387Z,930.06
2016-11-09T00:04:54.367Z,930.1
2016-11-09T00:06:07.771Z,930.11
2016-11-09T00:07:20.847Z,930.16
2016-11-09T00:08:33.840Z,930.2
2016-11-09T00:09:47.454Z,930.23
2016-11-09T00:11:01.094Z,930.26
2016-11-09T00:12:13.854Z,930.23
2016-11-09T00:13:27.476Z,930.26
2016-11-09T00:14:41.066Z,930.29
2016-11-09T00:15:53.616Z,930.28
2016-11-09T00:17:07.187Z,930.35
2016-11-09T00:18:20.787Z,930.4
2016-11-09T00:19:33.867Z,930.4
2016-11-09T00:20:47.533Z,930.43
2016-11-09T00:22:00.607Z,930.45
2016-11-09T00:23:13.057Z,930.48
2016-11-09T00:24:26.761Z,930.47
2016-11-09T00:25:40.325Z,930.5
2016-11-09T00:26:53.470Z,930.57
2016-11-09T00:28:06.976Z,930.61
2016-11-09T00:29:20.515Z,930.59
2016-11-09T00:30:34.080Z,930.59
2016-11-09T00:31:47.086Z,930.61
2016-11-09T00:33:00.679Z,930.62
2016-11-09T00:34:14.772Z,930.6
2016-11-09T00:35:27.847Z,930.67
2016-11-09T00:36:40.836Z,930.69
2016-11-09T00:37:54.426Z,930.72
2016-11-09T00:39:08.015Z,930.75
2016-11-09T00:40:21.043Z,930.77
2016-11-09T00:41:34.544Z,930.78
2016-11-09T00:42:47.620Z,930.73
2016-11-09T00:44:00.865Z,930.75
2016-11-09T00:45:14.557Z,930.73
2016-11-09T00:46:27.582Z,930.75
2016-11-09T00:47:41.153Z,930.74
2016-11-09T00:48:54.739Z,930.75
2016-11-09T00:50:07.783Z,930.72
2016-11-09T00:51:20.855Z,930.72
2016-11-09T00:52:34.417Z,930.71
2016-11-09T00:53:48.076Z,930.73
2016-11-09T00:55:01.622Z,930.74
2016-11-09T00:56:15.198Z,930.74
2016-11-09T00:57:28.760Z,930.77
2016-11-09T01:00:25.719Z,930.75
2016-11-09T01:01:38.226Z,930.77
2016-11-09T01:02:52.003Z,930.72
2016-11-09T01:04:05.554Z,930.69
2016-11-09T01:05:19.197Z,930.71
2016-11-09T01:06:32.799Z,930.71
2016-11-09T01:07:46.379Z,930.7
2016-11-09T01:08:59.982Z,930.7
2016-11-09T01:10:13.340Z,930.73
2016-11-09T01:11:26.971Z,930.75
2016-11-09T01:12:40.586Z,930.68
2016-11-09T01:14:25.675Z,930.64
2016-11-09T01:15:37.677Z,930.66
2016-11-09T01:16:50.403Z,930.62
2016-11-09T01:18:03.351Z,930.67
2016-11-09T01:19:17.026Z,930.66
2016-11-09T01:20:30.719Z,930.68
2016-11-09T01:21:44.267Z,930.68
2016-11-09T01:22:57.831Z,930.67
2016-11-09T01:24:11.434Z,930.72
2016-11-09T01:25:24.993Z,930.72
2016-11-09T01:26:37.491Z,930.66
2016-11-09T01:27:51.110Z,930.66
2016-11-09T01:29:04.111Z,930.65
2016-11-09T01:30:17.669Z,930.68
2016-11-09T01:31:31.218Z,930.63
2016-11-09T01:32:44.878Z,930.67
2016-11-09T01:33:58.524Z,930.67
2016-11-09T01:35:11.611Z,930.61
2016-11-09T01:36:24.727Z,930.59
2016-11-09T01:37:37.701Z,930.59
2016-11-09T01:38:51.268Z,930.58
2016-11-09T01:40:04.578Z,930.58
2016-11-09T01:41:18.130Z,930.58
2016-11-09T01:42:31.653Z,930.55
2016-11-09T01:43:45.164Z,930.5
2016-11-09T01:44:58.762Z,930.57
2016-11-09T01:46:11.799Z,930.5
2016-11-09T01:47:25.353Z,930.47
2016-11-09T01:48:38.342Z,930.49
2016-11-09T01:49:52.311Z,930.49
2016-11-09T01:51:05.846Z,930.46
2016-11-09T01:52:18.919Z,930.47
2016-11-09T01:53:31.780Z,930.43
2016-11-09T01:54:45.751Z,930.43
2016-11-09T01:55:58.783Z,930.4
2016-11-09T01:57:11.822Z,930.34
2016-11-09T01:58:25.522Z,930.34
2016-11-09T01:59:38.610Z,930.33
2016-11-09T02:00:52.317Z,930.31
2016-11-09T02:02:05.345Z,930.28
2016-11-09T02:03:18.382Z,930.23
2016-11-09T02:04:31.879Z,930.22
2016-11-09T02:05:44.885Z,930.19
2016-11-09T02:06:57.922Z,930.22
2016-11-09T02:08:11.566Z,930.22
2016-11-09T02:09:24.907Z,930.17
2016-11-09T02:10:38.567Z,930.1
2016-11-09T02:11:52.403Z,930.09
2016-11-09T02:13:05.403Z,930.06
2016-11-09T02:14:19.433Z,930.13
2016-11-09T02:15:33.024Z,930.11
2016-11-09T02:16:46.412Z,930.1
2016-11-09T02:17:59.986Z,930.09
2016-11-09T02:19:13.295Z,930.06
2016-11-09T02:20:26.619Z,930.05
2016-11-09T02:21:39.705Z,930.04
2016-11-09T02:22:52.752Z,930.04
2016-11-09T02:24:05.834Z,930.03
2016-11-09T02:25:19.454Z,930.07
2016-11-09T02:26:32.989Z,930.08
2016-11-09T02:27:46.130Z,930.06
2016-11-09T02:28:59.960Z,930.04
2016-11-09T02:30:12.940Z,930.04
2016-11-09T02:31:26.280Z,930.05
2016-11-09T02:32:39.923Z,930.01
2016-11-09T02:33:52.509Z,930.06
2016-11-09T02:36:50.572Z,930.03
2016-11-09T02:38:04.156Z,929.98
2016-11-09T02:39:17.259Z,929.95
2016-11-09T02:40:30.842Z,929.95
2016-11-09T02:41:44.451Z,929.9
2016-11-09T02:42:57.951Z,929.87
2016-11-09T02:44:11.566Z,929.87
2016-11-09T02:45:24.640Z,929.81
2016-11-09T02:46:38.223Z,929.79
2016-11-09T02:47:51.282Z,929.72
2016-11-09T02:49:04.962Z,929.71
2016-11-09T02:50:18.577Z,929.69
2016-11-09T02:51:32.200Z,929.64
2016-11-09T02:52:45.266Z,929.59
2016-11-09T02:53:58.807Z,929.57
2016-11-09T02:55:12.398Z,929.54
2016-11-09T02:56:26.187Z,929.58
2016-11-09T02:57:38.999Z,929.55
2016-11-09T02:58:52.651Z,929.54
2016-11-09T03:00:06.256Z,929.55
2016-11-09T03:01:19.865Z,929.53
2016-11-09T03:02:33.444Z,929.54
2016-11-09T03:03:47.003Z,929.47
2016-11-09T03:05:00.567Z,929.46
2016-11-09T03:06:13.658Z,929.46
2016-11-09T03:07:27.198Z,929.42
2016-11-09T03:08:40.776Z,929.37
2016-11-09T03:09:54.290Z,929.39
2016-11-09T03:11:07.837Z,929.4
2016-11-09T03:12:20.994Z,929.42
2016-11-09T03:13:34.556Z,929.43
2016-11-09T03:14:47.933Z,929.39
2016-11-09T03:16:01.479Z,929.4
2016-11-09T03:17:15.070Z,929.35
2016-11-09T03:18:28.639Z,929.37
2016-11-09T03:19:41.113Z,929.33
2016-11-09T03:20:54.670Z,929.34
2016-11-09T03:22:08.259Z,929.32
2016-11-09T03:23:21.212Z,929.29
2016-11-09T03:24:34.808Z,929.27
2016-11-09T03:25:48.360Z,929.19
2016-11-09T03:27:01.900Z,929.18
2016-11-09T03:28:15.415Z,929.15
2016-11-09T03:29:29.110Z,929.18
2016-11-09T03:30:42.176Z,929.18
2016-11-09T03:31:55.680Z,929.18
2016-11-09T03:33:09.315Z,929.12
2016-11-09T03:34:22.763Z,929.09
2016-11-09T03:35:35.909Z,929.11
2016-11-09T03:36:49.727Z,929.13
2016-11-09T03:38:03.324Z,929.16
2016-11-09T03:39:16.917Z,929.14
2016-11-09T03:40:30.161Z,929.17
2016-11-09T03:41:43.825Z,929.14
2016-11-09T03:42:57.444Z,929.17
2016-11-09T03:44:09.927Z,929.19
2016-11-09T03:45:23.987Z,929.16
2016-11-09T03:46:37.131Z,929.2
2016-11-09T03:47:50.169Z,929.18
2016-11-09T03:49:03.760Z,929.17
2016-11-09T03:50:16.756Z,929.15
2016-11-09T03:51:30.021Z,929.15
2016-11-09T03:52:43.531Z,929.16
2016-11-09T03:53:56.319Z,929.19
2016-11-09T03:55:09.446Z,929.23
2016-11-09T03:56:22.301Z,929.24
2016-11-09T03:57:35.906Z,929.27
2016-11-09T03:58:49.791Z,929.36
2016-11-09T04:00:03.434Z,929.34
2016-11-09T04:01:16.187Z,929.35
2016-11-09T04:02:29.768Z,929.36
2016-11-09T04:03:43.307Z,929.37
2016-11-09T04:04:55.848Z,929.34
2016-11-09T04:06:09.437Z,929.33
2016-11-09T04:07:22.177Z,929.33
2016-11-09T04:08:35.828Z,929.27
2016-11-09T04:09:49.444Z,929.24
2016-11-09T04:11:02.743Z,929.21
2016-11-09T04:12:15.748Z,929.19
2016-11-09T04:13:29.331Z,929.21
2016-11-09T04:14:42.901Z,929.22
2016-11-09T04:15:56.499Z,929.26
2016-11-09T04:17:10.023Z,929.24
2016-11-09T04:18:23.355Z,929.25
2016-11-09T04:19:36.927Z,929.25
2016-11-09T04:20:50.551Z,929.24
2016-11-09T04:22:03.564Z,929.16
2016-11-09T04:23:17.095Z,929.1
2016-11-09T04:24:30.565Z,929.1
2016-11-09T04:25:44.167Z,929.08
2016-11-09T04:26:57.738Z,929.04
2016-11-09T04:28:11.405Z,929
2016-11-09T04:29:25.007Z,929
2016-11-09T04:30:38.025Z,928.93
2016-11-09T04:31:51.596Z,928.9
2016-11-09T04:33:04.338Z,928.91
2016-11-09T04:34:17.949Z,928.87
2016-11-09T04:35:31.531Z,928.86
2016-11-09T04:36:45.060Z,928.83
2016-11-09T04:37:58.735Z,928.78
2016-11-09T04:39:43.499Z,928.81
2016-11-09T04:40:57.243Z,928.82
2016-11-09T04:42:09.723Z,928.78
2016-11-09T04:43:23.273Z,928.77
2016-11-09T04:44:36.900Z,928.75
2016-11-09T04:45:50.517Z,928.76
2016-11-09T04:47:04.074Z,928.79
2016-11-09T04:48:17.089Z,928.76
2016-11-09T04:49:30.698Z,928.78
2016-11-09T04:50:43.471Z,928.76
2016-11-09T04:51:56.630Z,928.78
2016-11-09T04:53:10.198Z,928.78
2016-11-09T04:54:24.027Z,928.77
2016-11-09T04:55:37.643Z,928.75
2016-11-09T04:56:51.328Z,928.76
2016-11-09T04:58:04.570Z,928.75
2016-11-09T04:59:17.627Z,928.72
2016-11-09T05:00:30.658Z,928.79
2016-11-09T05:01:44.152Z,928.85
2016-11-09T05:02:57.722Z,928.85
2016-11-09T05:04:11.307Z,928.9
2016-11-09T05:05:24.912Z,928.85
2016-11-09T05:06:37.962Z,928.87
2016-11-09T05:07:51.132Z,928.86
2016-11-09T05:09:04.266Z,928.84
2016-11-09T05:10:16.778Z,928.81
2016-11-09T05:11:30.351Z,928.8
2016-11-09T05:12:43.428Z,928.76
2016-11-09T05:13:57.047Z,928.72
2016-11-09T05:15:10.651Z,928.68
2016-11-09T05:16:54.813Z,928.65
2016-11-09T05:18:08.431Z,928.62
2016-11-09T05:19:21.452Z,928.56
2016-11-09T05:20:35.033Z,928.55
2016-11-09T05:21:48.660Z,928.54
2016-11-09T05:23:02.026Z,928.56
2016-11-09T05:24:15.594Z,928.57
2016-11-09T05:25:28.124Z,928.57
2016-11-09T05:26:41.229Z,928.58
2016-11-09T05:27:54.756Z,928.6
2016-11-09T05:29:08.347Z,928.65
2016-11-09T05:30:21.897Z,928.71
2016-11-09T05:31:35.489Z,928.71
2016-11-09T05:32:48.497Z,928.7
2016-11-09T05:34:02.132Z,928.65
2016-11-09T05:35:15.126Z,928.64
2016-11-09T05:36:28.754Z,928.61
2016-11-09T05:37:42.354Z,928.61
2016-11-09T05:38:55.905Z,928.62
2016-11-09T05:40:09.492Z,928.53
2016-11-09T05:41:23.025Z,928.53
2016-11-09T05:42:36.546Z,928.51
2016-11-09T05:43:49.922Z,928.45
2016-11-09T05:45:02.971Z,928.45
2016-11-09T05:46:15.487Z,928.47
2016-11-09T05:47:28.567Z,928.45
2016-11-09T05:48:42.152Z,928.44
2016-11-09T05:49:54.642Z,928.49
2016-11-09T05:51:07.186Z,928.52
2016-11-09T05:52:21.128Z,928.48
2016-11-09T05:53:34.707Z,928.48
2016-11-09T05:54:48.272Z,928.52
2016-11-09T05:56:01.857Z,928.51
2016-11-09T05:57:14.831Z,928.51
2016-11-09T05:58:27.879Z,928.48
2016-11-09T05:59:41.208Z,928.46
2016-11-09T06:00:54.849Z,928.47
2016-11-09T06:02:08.424Z,928.48
2016-11-09T06:03:22.084Z,928.42
2016-11-09T06:04:35.661Z,928.42
2016-11-09T06:05:49.176Z,928.43
2016-11-09T06:07:02.203Z,928.44
2016-11-09T06:08:15.585Z,928.47
2016-11-09T06:09:29.157Z,928.51
2016-11-09T06:10:41.634Z,928.52
2016-11-09T06:11:55.233Z,928.56
2016-11-09T06:13:08.292Z,928.55
2016-11-09T06:14:20.536Z,928.54
2016-11-09T06:15:33.122Z,928.52
2016-11-09T06:16:46.694Z,928.48
2016-11-09T06:17:59.975Z,928.52
2016-11-09T06:19:13.065Z,928.45
2016-11-09T06:20:26.033Z,928.48
2016-11-09T06:21:38.562Z,928.49
2016-11-09T06:22:52.198Z,928.51
2016-11-09T06:24:05.782Z,928.52
2016-11-09T06:25:19.392Z,928.49
2016-11-09T06:26:31.932Z,928.48
2016-11-09T06:27:44.917Z,928.48
2016-11-09T06:28:58.643Z,928.47
2016-11-09T06:30:11.628Z,928.45
2016-11-09T06:31:25.214Z,928.52
2016-11-09T06:32:38.922Z,928.48
2016-11-09T06:34:22.563Z,928.46
2016-11-09T06:35:36.202Z,928.44
2016-11-09T06:36:49.920Z,928.44
2016-11-09T06:38:02.994Z,928.45
2016-11-09T06:39:16.071Z,928.42
2016-11-09T06:40:28.638Z,928.44
2016-11-09T06:41:42.214Z,928.42
2016-11-09T06:42:55.218Z,928.46
2016-11-09T06:44:07.702Z,928.51
2016-11-09T06:45:20.984Z,928.55
2016-11-09T06:46:33.987Z,928.58
2016-11-09T06:47:47.566Z,928.56
2016-11-09T06:49:01.147Z,928.57
2016-11-09T06:50:14.195Z,928.54
2016-11-09T06:51:27.313Z,928.5
2016-11-09T06:52:40.318Z,928.53
2016-11-09T06:53:53.667Z,928.5
2016-11-09T06:55:07.295Z,928.55
2016-11-09T06:56:20.838Z,928.55
2016-11-09T06:57:34.467Z,928.6
2016-11-09T06:58:48.098Z,928.63
2016-11-09T07:00:01.424Z,928.68
2016-11-09T07:01:15.017Z,928.7
2016-11-09T07:02:28.023Z,928.68
2016-11-09T07:03:41.621Z,928.7
2016-11-09T07:04:55.149Z,928.69
2016-11-09T07:06:08.674Z,928.69
2016-11-09T07:07:21.689Z,928.71
2016-11-09T07:08:34.678Z,928.73
2016-11-09T07:09:48.299Z,928.71
2016-11-09T07:11:33.024Z,928.72
2016-11-09T07:12:46.624Z,928.75
2016-11-09T07:14:00.492Z,928.74
2016-11-09T07:15:13.579Z,928.77
2016-11-09T07:16:26.369Z,928.76
2016-11-09T07:17:39.448Z,928.77
2016-11-09T07:18:53.019Z,928.79
2016-11-09T07:20:06.678Z,928.76
2016-11-09T07:21:20.247Z,928.74
2016-11-09T07:22:33.260Z,928.79
2016-11-09T07:23:46.909Z,928.83
2016-11-09T07:25:00.478Z,928.83
2016-11-09T07:26:12.968Z,928.83
2016-11-09T07:27:26.052Z,928.81
2016-11-09T07:28:38.570Z,928.82
2016-11-09T07:29:51.522Z,928.81
2016-11-09T07:31:05.121Z,928.82
2016-11-09T07:32:17.986Z,928.8
2016-11-09T07:35:16.217Z,928.87
2016-11-09T07:36:29.837Z,928.84
2016-11-09T07:37:42.874Z,928.83
2016-11-09T07:38:56.517Z,928.8
2016-11-09T07:40:41.154Z,928.76
2016-11-09T07:41:54.750Z,928.74
2016-11-09T07:43:07.486Z,928.75
2016-11-09T07:44:20.875Z,928.76
2016-11-09T07:45:34.472Z,928.74
2016-11-09T07:46:48.038Z,928.79
2016-11-09T07:48:01.600Z,928.8
2016-11-09T07:49:15.149Z,928.81
2016-11-09T07:50:28.772Z,928.79
2016-11-09T07:51:42.410Z,928.81
2016-11-09T07:52:55.948Z,928.79
2016-11-09T07:54:08.989Z,928.79
2016-11-09T07:55:21.505Z,928.82
2016-11-09T07:56:35.092Z,928.83
2016-11-09T07:57:48.683Z,928.87
2016-11-09T07:59:01.720Z,928.9
2016-11-09T08:00:15.299Z,928.87
2016-11-09T08:01:28.347Z,928.86
2016-11-09T08:02:41.912Z,928.86
2016-11-09T08:03:54.938Z,928.88
2016-11-09T08:05:08.043Z,928.88
2016-11-09T08:06:21.618Z,928.88
2016-11-09T08:07:34.648Z,928.88
2016-11-09T08:08:48.200Z,928.9
2016-11-09T08:10:01.776Z,928.86
2016-11-09T08:11:15.333Z,928.85
2016-11-09T08:12:28.914Z,928.85
2016-11-09T08:13:41.973Z,928.83
2016-11-09T08:14:55.617Z,928.83
2016-11-09T08:16:09.130Z,928.82
2016-11-09T08:17:22.866Z,928.86
2016-11-09T08:18:36.511Z,928.89
2016-11-09T08:19:50.129Z,928.93
2016-11-09T08:21:03.717Z,929
2016-11-09T08:22:16.880Z,928.98
2016-11-09T08:23:30.898Z,929.01
2016-11-09T08:24:44.504Z,929.02
2016-11-09T08:25:58.137Z,928.98
2016-11-09T08:27:11.704Z,929.01
2016-11-09T08:28:25.333Z,929.06
2016-11-09T08:29:38.912Z,929.05
2016-11-09T08:30:52.496Z,929.06
2016-11-09T08:32:05.507Z,929.08
2016-11-09T08:33:18.228Z,929.1
2016-11-09T08:34:31.807Z,929.08
2016-11-09T08:35:44.782Z,929.09
2016-11-09T08:36:57.585Z,929.13
2016-11-09T08:38:10.586Z,929.17
2016-11-09T08:39:24.311Z,929.19
2016-11-09T08:40:37.902Z,929.18
2016-11-09T08:41:51.378Z,929.24
2016-11-09T08:43:04.956Z,929.23
2016-11-09T08:44:18.554Z,929.23
2016-11-09T08:45:31.662Z,929.25
2016-11-09T08:46:44.428Z,929.22
2016-11-09T08:47:58.026Z,929.24
2016-11-09T08:49:11.630Z,929.23
2016-11-09T08:50:24.693Z,929.26
2016-11-09T08:51:38.342Z,929.26
2016-11-09T08:52:51.337Z,929.23
2016-11-09T08:54:04.979Z,929.22
2016-11-09T08:55:18.524Z,929.23
2016-11-09T08:56:32.011Z,929.27
2016-11-09T08:57:45.089Z,929.24
2016-11-09T08:58:58.680Z,929.26
2016-11-09T09:00:12.260Z,929.27
2016-11-09T09:01:25.566Z,929.27
2016-11-09T09:02:39.135Z,929.3
2016-11-09T09:03:53.072Z,929.31
2016-11-09T09:05:06.651Z,929.36
2016-11-09T09:06:20.362Z,929.42
2016-11-09T09:07:33.193Z,929.45
2016-11-09T09:08:46.209Z,929.44
2016-11-09T09:09:59.739Z,929.43
2016-11-09T09:11:13.322Z,929.42
2016-11-09T09:12:26.920Z,929.41
2016-11-09T09:13:40.521Z,929.38
2016-11-09T09:14:54.294Z,929.32
2016-11-09T09:16:07.830Z,929.36
2016-11-09T09:17:21.419Z,929.37
2016-11-09T09:18:34.972Z,929.34
2016-11-09T09:19:48.504Z,929.32
2016-11-09T09:21:00.977Z,929.34
2016-11-09T09:22:14.060Z,929.36
2016-11-09T09:23:27.697Z,929.33
2016-11-09T09:24:40.699Z,929.38
2016-11-09T09:25:53.674Z,929.3
2016-11-09T09:27:07.187Z,929.32
2016-11-09T09:28:20.225Z,929.31
2016-11-09T09:29:33.859Z,929.3
2016-11-09T09:30:46.843Z,929.34
2016-11-09T09:32:00.457Z,929.33
2016-11-09T09:33:13.978Z,929.32
2016-11-09T09:34:27.555Z,929.31
2016-11-09T09:35:41.042Z,929.29
2016-11-09T09:36:54.657Z,929.3
2016-11-09T09:38:08.309Z,929.36
2016-11-09T09:39:21.112Z,929.4
2016-11-09T09:40:34.377Z,929.45
2016-11-09T09:41:47.447Z,929.47
2016-11-09T09:43:01.151Z,929.42
2016-11-09T09:44:14.769Z,929.39
2016-11-09T09:45:28.382Z,929.39
2016-11-09T09:46:41.424Z,929.36
2016-11-09T09:47:55.029Z,929.4
2016-11-09T09:49:08.561Z,929.39
2016-11-09T09:50:22.100Z,929.42
2016-11-09T09:51:35.638Z,929.37
2016-11-09T09:52:49.296Z,929.37
2016-11-09T09:54:02.359Z,929.39
2016-11-09T09:55:14.920Z,929.37
2016-11-09T09:56:28.413Z,929.33
2016-11-09T09:57:40.997Z,929.29
2016-11-09T09:58:54.530Z,929.3
2016-11-09T10:00:08.085Z,929.29
2016-11-09T10:01:21.202Z,929.29
2016-11-09T10:02:34.467Z,929.29
2016-11-09T10:03:46.997Z,929.23
2016-11-09T10:05:00.597Z,929.23
2016-11-09T10:06:14.138Z,929.24
2016-11-09T10:07:27.661Z,929.23
2016-11-09T10:09:12.344Z,929.25
2016-11-09T10:10:25.903Z,929.28
2016-11-09T10:11:39.457Z,929.25
2016-11-09T10:12:53.117Z,929.27
2016-11-09T10:14:06.646Z,929.28
2016-11-09T10:15:20.275Z,929.3
2016-11-09T10:16:33.879Z,929.3
2016-11-09T10:17:47.023Z,929.3
2016-11-09T10:19:00.638Z,929.26
2016-11-09T10:20:13.377Z,929.27
2016-11-09T10:21:26.933Z,929.31
2016-11-09T10:22:40.536Z,929.34
2016-11-09T10:23:54.257Z,929.36
2016-11-09T10:25:07.772Z,929.33
2016-11-09T10:26:20.004Z,929.36
2016-11-09T10:27:33.653Z,929.36
2016-11-09T10:28:47.198Z,929.38
2016-11-09T10:30:00.198Z,929.42
2016-11-09T10:31:13.804Z,929.43
2016-11-09T10:32:27.452Z,929.42
2016-11-09T10:33:40.754Z,929.43
2016-11-09T10:34:53.835Z,929.44
2016-11-09T10:36:07.407Z,929.4
2016-11-09T10:37:20.419Z,929.37
2016-11-09T10:38:33.614Z,929.42
2016-11-09T10:39:46.112Z,929.36
2016-11-09T10:40:59.646Z,929.4
2016-11-09T10:42:12.751Z,929.4
2016-11-09T10:43:26.271Z,929.35
2016-11-09T10:44:39.834Z,929.39
2016-11-09T10:45:53.436Z,929.38
2016-11-09T10:47:06.952Z,929.42
2016-11-09T10:48:20.579Z,929.4
2016-11-09T10:49:33.680Z,929.39
2016-11-09T10:50:47.260Z,929.4
2016-11-09T10:52:00.855Z,929.43
2016-11-09T10:53:13.037Z,929.46
2016-11-09T10:54:26.139Z,929.41
2016-11-09T10:55:38.707Z,929.48
2016-11-09T10:56:52.003Z,929.47
2016-11-09T10:58:05.551Z,929.51
2016-11-09T10:59:19.134Z,929.51
2016-11-09T11:00:32.776Z,929.5
2016-11-09T11:01:46.471Z,929.51
2016-11-09T11:02:59.980Z,929.51
2016-11-09T11:04:13.632Z,929.53
2016-11-09T11:05:27.478Z,929.55
2016-11-09T11:06:41.041Z,929.57
2016-11-09T11:07:53.762Z,929.64
2016-11-09T11:09:07.347Z,929.58
2016-11-09T11:10:20.921Z,929.61
2016-11-09T11:11:34.576Z,929.63
2016-11-09T11:12:48.143Z,929.62
2016-11-09T11:14:01.712Z,929.61
2016-11-09T11:15:15.297Z,929.59
2016-11-09T11:16:28.936Z,929.6
2016-11-09T11:17:41.985Z,929.6
2016-11-09T11:19:01.580Z,929.65
2016-11-09T11:20:15.246Z,929.65
2016-11-09T11:21:28.847Z,929.71
2016-11-09T11:22:41.398Z,929.77
2016-11-09T11:23:54.687Z,929.85
2016-11-09T11:25:08.356Z,929.8
2016-11-09T11:26:22.069Z,929.72
2016-11-09T11:27:35.700Z,929.73
2016-11-09T11:28:49.289Z,929.8
2016-11-09T11:30:02.897Z,929.75
2016-11-09T11:31:16.460Z,929.71
2016-11-09T11:32:30.139Z,929.79
2016-11-09T11:33:43.889Z,929.8
2016-11-09T11:34:56.963Z,929.76
2016-11-09T11:36:10.098Z,929.74
2016-11-09T11:37:23.756Z,929.74
2016-11-09T11:38:37.380Z,929.76
2016-11-09T11:39:51.230Z,929.71
2016-11-09T11:41:04.872Z,929.76
2016-11-09T11:42:18.551Z,929.81
2016-11-09T11:43:32.179Z,929.77
2016-11-09T11:44:45.207Z,929.73
2016-11-09T11:45:58.385Z,929.79
2016-11-09T11:47:11.516Z,929.72
2016-11-09T11:48:25.192Z,929.73
2016-11-09T11:49:38.781Z,929.72
2016-11-09T11:50:52.397Z,929.8
2016-11-09T11:52:06.056Z,929.82
2016-11-09T11:53:19.739Z,929.77
2016-11-09T11:54:33.126Z,929.76
2016-11-09T11:55:45.762Z,929.77
2016-11-09T11:56:59.101Z,929.75
2016-11-09T11:58:12.260Z,929.72
2016-11-09T11:59:25.852Z,929.71
2016-11-09T12:00:38.946Z,929.72
2016-11-09T12:01:52.047Z,929.78
2016-11-09T12:03:05.167Z,929.78
2016-11-09T12:04:18.559Z,929.89
2016-11-09T12:05:32.263Z,929.81
2016-11-09T12:06:45.374Z,929.83
2016-11-09T12:07:58.906Z,929.82
2016-11-09T12:09:12.643Z,929.85
2016-11-09T12:10:26.254Z,929.93
2016-11-09T12:11:39.043Z,929.8
2016-11-09T12:12:52.711Z,929.83
2016-11-09T12:14:06.127Z,929.85
2016-11-09T12:15:19.242Z,929.82
2016-11-09T12:16:32.809Z,929.76
2016-11-09T12:17:46.399Z,929.71
2016-11-09T12:19:00.072Z,929.8
2016-11-09T12:20:13.498Z,929.74
2016-11-09T12:21:26.697Z,929.69
2016-11-09T12:22:40.018Z,929.66
2016-11-09T12:23:53.635Z,929.63
2016-11-09T12:25:06.665Z,929.7
2016-11-09T12:26:20.033Z,929.61
2016-11-09T12:27:33.131Z,929.6
2016-11-09T12:28:46.691Z,929.61
2016-11-09T12:30:00.071Z,929.63
2016-11-09T12:31:13.665Z,929.59
2016-11-09T12:32:27.014Z,929.57
2016-11-09T12:33:40.563Z,929.56
2016-11-09T12:34:54.410Z,929.51
2016-11-09T12:36:07.985Z,929.59
2016-11-09T12:37:21.206Z,929.64
2016-11-09T12:38:34.789Z,929.66
2016-11-09T12:39:48.368Z,929.53
2016-11-09T12:41:01.921Z,929.56
2016-11-09T12:42:15.590Z,929.52
2016-11-09T12:43:29.141Z,929.55
2016-11-09T12:44:42.737Z,929.54
2016-11-09T12:45:56.361Z,929.52
2016-11-09T12:47:09.933Z,929.56
2016-11-09T12:48:23.547Z,929.46
2016-11-09T12:49:37.105Z,929.43
2016-11-09T12:50:50.339Z,929.43
2016-11-09T12:52:03.984Z,929.47
2016-11-09T12:53:17.655Z,929.43
2016-11-09T12:54:30.615Z,929.44
2016-11-09T12:55:43.743Z,929.36
2016-11-09T12:56:56.879Z,929.4
2016-11-09T12:58:10.540Z,929.4
2016-11-09T12:59:24.445Z,929.36
2016-11-09T13:00:36.959Z,929.38
2016-11-09T13:01:50.553Z,929.44
2016-11-09T13:03:04.245Z,929.34
2016-11-09T13:04:17.947Z,929.38
2016-11-09T13:05:31.597Z,929.42
2016-11-09T13:06:44.753Z,929.44
2016-11-09T13:07:58.136Z,929.31
2016-11-09T13:09:11.884Z,929.3
2016-11-09T13:10:25.092Z,929.27
2016-11-09T13:11:38.779Z,929.3
2016-11-09T13:12:52.422Z,929.25
2016-11-09T13:14:06.041Z,929.32
2016-11-09T13:15:19.699Z,929.33
2016-11-09T13:16:33.794Z,929.16
2016-11-09T13:17:47.435Z,929.14
2016-11-09T13:19:01.069Z,929.11
2016-11-09T13:20:14.192Z,929.06
2016-11-09T13:21:27.850Z,928.96
2016-11-09T13:22:41.433Z,929
2016-11-09T13:23:55.143Z,929.04
2016-11-09T13:25:08.761Z,928.96
2016-11-09T13:26:21.812Z,928.91
2016-11-09T13:27:35.351Z,928.91
2016-11-09T13:28:48.469Z,928.91
2016-11-09T13:30:02.070Z,928.88
2016-11-09T13:31:15.711Z,928.92
2016-11-09T13:32:29.232Z,928.89
2016-11-09T13:33:42.900Z,929.01
2016-11-09T13:34:55.474Z,928.87
2016-11-09T13:36:09.096Z,929.02
2016-11-09T13:37:22.730Z,929.03
2016-11-09T13:39:07.481Z,928.91
2016-11-09T13:40:21.305Z,928.97
2016-11-09T13:41:34.393Z,928.91
2016-11-09T13:42:47.352Z,928.93
2016-11-09T13:44:01.033Z,928.89
2016-11-09T13:45:14.632Z,928.89
2016-11-09T13:46:27.151Z,928.85
2016-11-09T13:47:40.858Z,929.07
2016-11-09T13:48:54.526Z,928.9
2016-11-09T13:50:07.370Z,928.88
2016-11-09T13:51:20.447Z,928.85
2016-11-09T13:52:34.019Z,929.01
2016-11-09T13:53:47.145Z,928.99
2016-11-09T13:55:00.585Z,929.03
2016-11-09T13:56:14.761Z,929.01
2016-11-09T13:57:29.067Z,929.06
2016-11-09T13:58:42.642Z,929.13
2016-11-09T13:59:56.237Z,928.96
2016-11-09T14:01:09.777Z,928.92
2016-11-09T14:02:23.253Z,928.93
2016-11-09T14:03:36.942Z,928.91
2016-11-09T14:04:50.136Z,928.92
2016-11-09T14:06:03.173Z,928.88
2016-11-09T14:07:16.823Z,929
2016-11-09T14:08:30.059Z,928.96
2016-11-09T14:09:43.603Z,928.87
2016-11-09T14:10:57.526Z,928.86
2016-11-09T14:12:10.567Z,928.99
2016-11-09T14:13:24.469Z,928.8
2016-11-09T14:14:37.029Z,928.74
2016-11-09T14:15:50.697Z,928.82
2016-11-09T14:17:03.693Z,928.81
2016-11-09T14:18:16.723Z,928.89
2016-11-09T14:19:29.744Z,928.83
2016-11-09T14:20:43.283Z,928.86
2016-11-09T14:21:57.738Z,928.82
2016-11-09T14:23:11.294Z,928.86
2016-11-09T14:24:24.840Z,928.8
2016-11-09T14:25:37.950Z,928.73
2016-11-09T14:26:51.489Z,928.72
2016-11-09T14:28:04.550Z,928.77
2016-11-09T14:29:17.312Z,928.73
2016-11-09T14:30:30.378Z,928.63
2016-11-09T14:31:43.932Z,928.74
2016-11-09T14:32:56.979Z,928.75
2016-11-09T14:34:10.651Z,928.7
2016-11-09T14:35:22.609Z,928.72
2016-11-09T14:36:36.212Z,928.61
2016-11-09T14:37:49.739Z,928.67
2016-11-09T14:39:02.864Z,928.68
2016-11-09T14:40:15.846Z,928.71
2016-11-09T14:41:29.386Z,928.67
2016-11-09T14:42:43.074Z,928.75
2016-11-09T14:43:56.593Z,928.66
2016-11-09T14:45:10.195Z,928.7
2016-11-09T14:46:23.568Z,928.71
2016-11-09T14:47:37.137Z,928.71
2016-11-09T14:48:50.197Z,928.7
2016-11-09T14:50:03.164Z,928.62
2016-11-09T14:51:16.721Z,928.52
2016-11-09T14:52:29.640Z,928.59
2016-11-09T14:53:43.330Z,928.6
2016-11-09T14:54:56.875Z,928.58
2016-11-09T14:56:10.459Z,928.5
2016-11-09T14:57:24.466Z,928.57
2016-11-09T14:58:38.045Z,928.66
2016-11-09T14:59:51.621Z,928.6
2016-11-09T15:01:04.378Z,928.58
2016-11-09T15:02:17.868Z,928.57
2016-11-09T15:03:30.927Z,928.55
2016-11-09T15:04:44.466Z,928.52
2016-11-09T15:05:58.077Z,928.56
2016-11-09T15:07:11.166Z,928.55
2016-11-09T15:08:23.951Z,928.52
2016-11-09T15:09:37.556Z,928.58
2016-11-09T15:10:51.328Z,928.63
2016-11-09T15:12:04.922Z,928.5
2016-11-09T15:13:17.165Z,928.67
2016-11-09T15:14:30.287Z,928.48
2016-11-09T15:15:42.848Z,928.59
2016-11-09T15:16:56.517Z,928.48
2016-11-09T15:18:10.146Z,928.5
2016-11-09T15:19:23.767Z,928.46
2016-11-09T15:20:36.790Z,928.4
2016-11-09T15:21:50.209Z,928.35
2016-11-09T15:23:03.794Z,928.4
2016-11-09T15:24:17.471Z,928.56
2016-11-09T15:25:31.141Z,928.33
2016-11-09T15:26:44.157Z,928.47
2016-11-09T15:27:57.825Z,928.36